createdAt,value
2018-09-28T00:00:40.485Z,6.10
2018-09-28T00:03:08.968Z,2.43
2018-09-28T00:05:37.283Z,3.80
2018-09-28T00:08:06.846Z,2.50
2018-09-28T00:10:35.279Z,3.43
2018-09-28T00:13:03.564Z,3.90
2018-09-28T00:15:32.125Z,3.20
2018-09-28T00:18:00.511Z,3.67
2018-09-28T00:20:28.888Z,2.20
2018-09-28T00:22:57.305Z,2.93
2018-09-28T00:25:25.764Z,6.27
2018-09-28T00:27:54.337Z,3.40
2018-09-28T00:30:22.735Z,7.07
2018-09-28T00:32:51.107Z,10.50
2018-09-28T00:35:19.481Z,4.93
2018-09-28T00:37:47.864Z,3.23
2018-09-28T00:40:16.448Z,2.80
2018-09-28T00:42:44.927Z,4.03
2018-09-28T00:45:13.303Z,2.70
2018-09-28T00:47:41.669Z,4.10
2018-09-28T00:50:10.370Z,4.40
2018-09-28T00:52:38.766Z,2.40
2018-09-28T00:55:07.254Z,4.30
2018-09-28T00:57:35.619Z,4.30
2018-09-28T01:00:04.316Z,2.10
2018-09-28T01:02:32.996Z,2.63
2018-09-28T01:05:01.490Z,1.80
2018-09-28T01:07:29.968Z,3.00
2018-09-28T01:09:58.360Z,1.87
2018-09-28T01:12:26.732Z,3.43
2018-09-28T01:14:55.195Z,2.83
2018-09-28T01:17:23.604Z,3.50
2018-09-28T01:19:52.047Z,2.70
2018-09-28T01:22:20.456Z,3.70
2018-09-28T01:24:48.933Z,3.73
2018-09-28T01:27:17.435Z,2.70
2018-09-28T01:29:45.902Z,5.67
2018-09-28T01:32:14.391Z,2.37
2018-09-28T01:34:42.776Z,3.73
2018-09-28T01:37:11.295Z,2.33
2018-09-28T01:39:39.635Z,5.90
2018-09-28T01:42:08.107Z,4.07
2018-09-28T01:44:36.513Z,5.40
2018-09-28T01:47:04.972Z,4.00
2018-09-28T01:49:33.656Z,6.63
2018-09-28T01:52:02.151Z,5.63
2018-09-28T01:54:30.519Z,6.53
2018-09-28T01:56:59.000Z,7.13
2018-09-28T01:59:27.385Z,2.40
2018-09-28T02:01:55.811Z,2.33
2018-09-28T02:04:24.464Z,4.40
2018-09-28T02:06:52.931Z,3.03
2018-09-28T02:09:21.312Z,3.43
2018-09-28T02:11:49.595Z,4.77
2018-09-28T02:14:17.980Z,6.00
2018-09-28T02:16:46.351Z,3.70
2018-09-28T02:19:14.804Z,2.33
2018-09-28T02:21:43.124Z,2.93
2018-09-28T02:24:11.492Z,3.97
2018-09-28T02:26:39.875Z,2.83
2018-09-28T02:29:08.260Z,2.93
2018-09-28T02:31:36.731Z,4.63
2018-09-28T02:34:05.123Z,2.60
2018-09-28T02:36:33.595Z,6.00
2018-09-28T02:39:02.275Z,2.53
2018-09-28T02:41:30.663Z,4.00
2018-09-28T02:43:59.140Z,1.90
2018-09-28T02:46:27.526Z,4.07
2018-09-28T02:48:55.911Z,2.20
2018-09-28T02:51:24.527Z,3.00
2018-09-28T02:53:52.979Z,2.87
2018-09-28T02:56:21.274Z,6.23
2018-09-28T02:58:49.623Z,1.83
2018-09-28T03:01:18.022Z,4.17
2018-09-28T03:03:46.412Z,2.83
2018-09-28T03:06:14.872Z,5.43
2018-09-28T03:08:43.151Z,5.47
2018-09-28T03:11:11.456Z,2.27
2018-09-28T03:13:39.940Z,5.20
2018-09-28T03:16:08.409Z,3.10
2018-09-28T03:18:37.174Z,2.13
2018-09-28T03:21:05.568Z,2.83
2018-09-28T03:23:33.923Z,4.33
2018-09-28T03:26:02.486Z,5.17
2018-09-28T03:28:30.829Z,3.37
2018-09-28T03:30:59.406Z,2.87
2018-09-28T03:33:27.770Z,6.70
2018-09-28T03:35:56.173Z,5.23
2018-09-28T03:38:24.550Z,2.23
2018-09-28T03:40:52.928Z,5.83
2018-09-28T03:43:21.216Z,3.57
2018-09-28T03:45:49.790Z,2.80
2018-09-28T03:48:18.194Z,2.73
2018-09-28T03:50:46.544Z,3.63
2018-09-28T03:53:14.931Z,2.33
2018-09-28T03:55:43.955Z,1.97
2018-09-28T03:58:12.227Z,2.30
2018-09-28T04:00:40.554Z,1.83
2018-09-28T04:03:08.940Z,4.70
2018-09-28T04:05:37.233Z,2.80
2018-09-28T04:08:05.607Z,9.30
2018-09-28T04:10:34.016Z,5.07
2018-09-28T04:13:02.386Z,3.50
2018-09-28T04:15:30.764Z,3.83
2018-09-28T04:17:59.140Z,5.27
2018-09-28T04:20:27.418Z,2.00
2018-09-28T04:22:55.895Z,2.40
2018-09-28T04:25:24.279Z,3.20
2018-09-28T04:27:52.572Z,3.00
2018-09-28T04:30:22.979Z,10.67
2018-09-28T04:32:51.287Z,5.20
2018-09-28T04:35:19.664Z,5.67
2018-09-28T04:37:48.027Z,4.10
2018-09-28T04:40:16.299Z,3.73
2018-09-28T04:42:44.695Z,4.47
2018-09-28T04:45:13.101Z,2.80
2018-09-28T04:47:41.576Z,3.00
2018-09-28T04:50:10.119Z,3.70
2018-09-28T04:52:38.635Z,2.60
2018-09-28T04:55:07.191Z,3.43
2018-09-28T04:57:43.045Z,5.90
2018-09-28T05:00:11.750Z,6.03
2018-09-28T05:02:40.122Z,3.60
2018-09-28T05:05:08.585Z,2.97
2018-09-28T05:07:37.095Z,6.90
2018-09-28T05:10:05.576Z,5.63
2018-09-28T05:12:34.073Z,2.27
2018-09-28T05:15:02.615Z,4.63
2018-09-28T05:17:31.028Z,3.87
2018-09-28T05:19:59.414Z,3.30
2018-09-28T05:22:28.000Z,3.73
2018-09-28T05:24:56.691Z,4.10
2018-09-28T05:27:33.284Z,6.87
2018-09-28T05:30:02.170Z,9.27
2018-09-28T05:32:30.963Z,2.53
2018-09-28T05:34:59.249Z,6.60
2018-09-28T05:37:28.115Z,6.30
2018-09-28T05:39:56.983Z,6.67
2018-09-28T05:42:25.571Z,5.87
2018-09-28T05:44:54.083Z,7.20
2018-09-28T05:47:22.677Z,8.83
2018-09-28T05:49:51.256Z,15.90
2018-09-28T05:52:19.725Z,4.33
2018-09-28T05:54:48.390Z,5.50
2018-09-28T05:57:17.096Z,6.87
2018-09-28T05:59:51.120Z,7.47
2018-09-28T06:02:24.991Z,6.00
2018-09-28T06:04:58.843Z,5.53
2018-09-28T06:07:27.526Z,5.47
2018-09-28T06:09:56.094Z,11.73
2018-09-28T06:12:24.575Z,12.40
2018-09-28T06:14:53.080Z,7.30
2018-09-28T06:17:21.434Z,10.40
2018-09-28T06:19:49.914Z,5.73
2018-09-28T06:22:18.294Z,7.50
2018-09-28T06:24:46.776Z,6.30
2018-09-28T06:27:15.476Z,12.83
2018-09-28T06:29:44.298Z,11.07
2018-09-28T06:32:12.757Z,7.83
2018-09-28T06:34:41.243Z,4.30
2018-09-28T06:37:09.733Z,6.70
2018-09-28T06:39:38.096Z,11.63
2018-09-28T06:42:06.660Z,11.53
2018-09-28T06:44:35.108Z,10.00
2018-09-28T06:47:03.420Z,10.43
2018-09-28T06:49:31.827Z,7.43
2018-09-28T06:52:00.195Z,8.07
2018-09-28T06:54:28.643Z,11.47
2018-09-28T06:56:56.966Z,6.10
2018-09-28T06:59:25.438Z,6.50
2018-09-28T07:01:53.836Z,7.60
2018-09-28T07:04:22.203Z,11.80
2018-09-28T07:06:50.487Z,8.13
2018-09-28T07:09:18.770Z,6.87
2018-09-28T07:11:47.125Z,12.27
2018-09-28T07:14:15.432Z,11.10
2018-09-28T07:16:43.849Z,10.90
2018-09-28T07:19:12.286Z,10.93
2018-09-28T07:24:28.401Z,11.33
2018-09-28T07:26:56.801Z,8.13
2018-09-28T07:29:25.194Z,12.27
2018-09-28T07:31:53.865Z,9.93
2018-09-28T07:34:22.520Z,9.83
2018-09-28T07:36:51.067Z,15.47
2018-09-28T07:39:19.495Z,18.33
2018-09-28T07:41:47.908Z,27.50
2018-09-28T07:44:16.559Z,15.10
2018-09-28T07:46:44.927Z,17.53
2018-09-28T07:49:13.369Z,10.63
2018-09-28T07:51:41.628Z,18.27
2018-09-28T07:54:09.974Z,10.03
2018-09-28T07:56:38.344Z,14.70
2018-09-28T07:59:06.721Z,11.93
2018-09-28T08:01:35.088Z,10.50
2018-09-28T08:04:03.509Z,18.87
2018-09-28T08:06:31.780Z,15.67
2018-09-28T08:09:00.164Z,9.33
2018-09-28T08:11:28.648Z,18.07
2018-09-28T08:13:57.022Z,16.57
2018-09-28T08:16:25.420Z,13.67
2018-09-28T08:18:53.810Z,13.70
2018-09-28T08:21:22.181Z,12.80
2018-09-28T08:23:50.459Z,13.60
2018-09-28T08:26:18.842Z,14.70
2018-09-28T08:28:47.637Z,17.43
2018-09-28T08:31:15.992Z,11.97
2018-09-28T08:33:44.384Z,14.17
2018-09-28T08:36:12.745Z,12.17
2018-09-28T08:38:41.105Z,17.30
2018-09-28T08:41:09.494Z,20.50
2018-09-28T08:43:37.907Z,14.40
2018-09-28T08:46:06.205Z,15.90
2018-09-28T08:48:34.750Z,21.60
2018-09-28T08:51:03.141Z,20.93
2018-09-28T08:53:31.557Z,17.57
2018-09-28T08:55:59.922Z,14.20
2018-09-28T08:58:28.307Z,24.23
2018-09-28T09:00:56.643Z,24.10
2018-09-28T09:03:25.028Z,21.93
2018-09-28T09:05:53.405Z,25.87
2018-09-28T09:08:21.720Z,26.27
2018-09-28T09:10:50.049Z,29.47
2018-09-28T09:13:18.555Z,25.20
2018-09-28T09:15:46.960Z,27.57
2018-09-28T09:18:15.447Z,22.07
2018-09-28T09:20:43.805Z,28.53
2018-09-28T09:23:12.180Z,26.17
2018-09-28T09:25:40.555Z,27.20
2018-09-28T09:28:08.864Z,35.30
2018-09-28T09:30:37.292Z,32.83
2018-09-28T09:33:05.687Z,36.33
2018-09-28T09:35:34.000Z,32.90
2018-09-28T09:38:02.362Z,35.27
2018-09-28T09:40:30.819Z,32.37
2018-09-28T09:42:59.231Z,30.23
2018-09-28T09:45:27.616Z,27.97
2018-09-28T09:47:55.971Z,42.10
2018-09-28T09:50:24.363Z,41.03
2018-09-28T09:52:52.755Z,37.80
2018-09-28T09:55:21.229Z,27.97
2018-09-28T09:57:49.761Z,32.87
2018-09-28T10:00:23.563Z,31.00
2018-09-28T10:02:57.228Z,28.83
2018-09-28T10:05:25.599Z,40.50
2018-09-28T10:07:54.092Z,33.40
2018-09-28T10:10:22.463Z,30.70
2018-09-28T10:12:50.827Z,35.13
2018-09-28T10:15:19.630Z,38.63
2018-09-28T10:17:48.007Z,39.80
2018-09-28T10:20:16.314Z,35.67
2018-09-28T10:22:44.789Z,30.67
2018-09-28T10:25:13.280Z,25.57
2018-09-28T10:27:41.683Z,31.63
2018-09-28T10:30:09.932Z,29.30
2018-09-28T10:32:38.258Z,25.43
2018-09-28T10:35:06.721Z,28.53
2018-09-28T10:37:35.168Z,37.20
2018-09-28T10:40:03.614Z,21.47
2018-09-28T10:42:31.991Z,27.50
2018-09-28T10:45:00.400Z,26.03
2018-09-28T10:47:28.790Z,22.27
2018-09-28T10:49:57.178Z,18.73
2018-09-28T10:52:25.907Z,19.97
2018-09-28T10:54:54.235Z,14.50
2018-09-28T10:57:22.729Z,16.70
2018-09-28T10:59:51.064Z,11.60
2018-09-28T11:02:19.463Z,12.23
2018-09-28T11:04:47.957Z,11.23
2018-09-28T11:07:16.547Z,8.30
2018-09-28T11:09:45.024Z,8.87
2018-09-28T11:12:13.525Z,6.20
2018-09-28T11:14:41.982Z,3.70
2018-09-28T11:17:10.385Z,9.83
2018-09-28T11:19:38.961Z,7.20
2018-09-28T11:22:07.440Z,6.10
2018-09-28T11:24:35.817Z,4.80
2018-09-28T11:27:04.320Z,16.67
2018-09-28T11:29:32.686Z,7.23
2018-09-28T11:32:01.153Z,5.77
2018-09-28T11:34:29.533Z,5.57
2018-09-28T11:36:58.029Z,6.97
2018-09-28T11:39:26.462Z,3.67
2018-09-28T11:41:54.684Z,4.87
2018-09-28T11:44:23.150Z,2.50
2018-09-28T11:46:51.667Z,1.93
2018-09-28T11:49:20.232Z,3.47
2018-09-28T11:51:48.748Z,4.67
2018-09-28T11:54:17.010Z,6.23
2018-09-28T11:56:45.575Z,4.73
2018-09-28T11:59:14.255Z,1.80
2018-09-28T12:01:42.630Z,3.67
2018-09-28T12:04:10.989Z,1.97
2018-09-28T12:06:39.494Z,1.60
2018-09-28T12:09:10.056Z,4.10
2018-09-28T12:11:38.533Z,4.97
2018-09-28T12:14:07.040Z,7.03
2018-09-28T12:16:35.616Z,4.77
2018-09-28T12:19:04.078Z,3.20
2018-09-28T12:21:32.581Z,1.17
2018-09-28T12:24:01.124Z,4.50
2018-09-28T12:26:29.733Z,2.73
2018-09-28T12:28:58.309Z,3.57
2018-09-28T12:31:26.792Z,7.53
2018-09-28T12:33:55.367Z,3.33
2018-09-28T12:36:23.953Z,13.27
2018-09-28T12:38:52.212Z,3.80
2018-09-28T12:41:20.733Z,3.70
2018-09-28T12:43:49.092Z,3.00
2018-09-28T12:46:27.468Z,4.00
2018-09-28T12:48:55.734Z,3.67
2018-09-28T12:51:24.057Z,9.73
2018-09-28T12:53:52.390Z,3.67
2018-09-28T12:56:20.744Z,4.83
2018-09-28T12:58:48.946Z,2.37
2018-09-28T13:01:17.372Z,12.13
2018-09-28T13:03:45.526Z,3.13
2018-09-28T13:06:13.866Z,2.97
2018-09-28T13:08:42.184Z,8.90
2018-09-28T13:11:10.473Z,1.40
2018-09-28T13:13:38.747Z,5.73
2018-09-28T13:16:07.653Z,2.03
2018-09-28T13:18:37.613Z,9.47
2018-09-28T13:21:05.954Z,2.93
2018-09-28T13:23:34.314Z,2.93
2018-09-28T13:26:03.162Z,2.63
2018-09-28T13:28:31.785Z,2.90
2018-09-28T13:31:00.352Z,5.53
2018-09-28T13:33:28.969Z,3.67
2018-09-28T13:35:57.396Z,3.73
2018-09-28T13:38:26.147Z,6.93
2018-09-28T13:40:54.768Z,5.87
2018-09-28T13:43:23.290Z,1.53
2018-09-28T13:45:52.011Z,3.40
2018-09-28T13:48:20.864Z,5.07
2018-09-28T13:50:49.476Z,6.67
2018-09-28T13:53:17.903Z,3.23
2018-09-28T13:58:50.821Z,9.73
2018-09-28T14:01:19.351Z,27.80
2018-09-28T14:03:47.953Z,5.43
2018-09-28T14:06:16.703Z,3.43
2018-09-28T14:08:44.965Z,7.73
2018-09-28T14:11:13.415Z,8.03
2018-09-28T14:13:41.680Z,3.33
2018-09-28T14:16:10.062Z,4.30
2018-09-28T14:21:18.124Z,4.10
2018-09-28T14:23:46.543Z,4.33
2018-09-28T14:26:14.829Z,2.10
2018-09-28T14:28:43.144Z,5.97
2018-09-28T14:31:12.594Z,2.50
2018-09-28T14:33:41.193Z,7.60
2018-09-28T14:36:09.503Z,3.73
2018-09-28T14:38:37.775Z,10.00
2018-09-28T14:41:06.048Z,4.40
2018-09-28T14:56:42.084Z,3.20
2018-09-28T14:59:10.365Z,3.00
2018-09-28T15:01:38.633Z,1.73
2018-09-28T15:04:06.992Z,8.80
2018-09-28T15:06:35.262Z,3.87
2018-09-28T15:09:04.404Z,8.50
2018-09-28T15:11:32.727Z,6.23
2018-09-28T15:14:00.961Z,3.70
2018-09-28T15:16:29.328Z,9.70
2018-09-28T15:18:57.560Z,4.20
2018-09-28T15:21:25.893Z,5.40
2018-09-28T15:23:54.214Z,6.97
2018-09-28T15:26:22.427Z,2.50
2018-09-28T15:28:50.788Z,1.57
2018-09-28T15:31:19.120Z,3.63
2018-09-28T15:33:47.371Z,5.60
2018-09-28T15:36:15.998Z,6.70
2018-09-28T15:38:44.244Z,6.40
2018-09-28T15:41:12.532Z,5.20
2018-09-28T15:43:40.809Z,5.70
2018-09-28T15:46:09.199Z,2.53
2018-09-28T15:48:37.475Z,3.20
2018-09-28T15:51:05.770Z,5.00
2018-09-28T15:53:34.112Z,5.53
2018-09-28T15:56:02.352Z,2.90
2018-09-28T15:58:31.647Z,8.90
2018-09-28T16:00:59.966Z,6.93
2018-09-28T16:03:28.291Z,2.13
2018-09-28T16:05:56.618Z,6.13
2018-09-28T16:08:24.872Z,4.20
2018-09-28T16:10:53.377Z,3.80
2018-09-28T16:13:21.801Z,3.93
2018-09-28T16:15:50.276Z,2.50
2018-09-28T16:18:20.017Z,7.10
2018-09-28T16:20:48.328Z,6.40
2018-09-28T16:23:16.653Z,1.93
2018-09-28T16:25:45.010Z,3.23
2018-09-28T16:28:13.367Z,5.93
2018-09-28T16:30:41.606Z,5.07
2018-09-28T16:33:10.008Z,2.83
2018-09-28T16:35:38.389Z,4.20
2018-09-28T16:38:06.677Z,2.10
2018-09-28T16:40:34.919Z,7.33
2018-09-28T16:43:03.228Z,1.27
2018-09-28T16:45:31.615Z,13.00
2018-09-28T16:47:59.855Z,8.33
2018-09-28T16:50:28.132Z,2.53
2018-09-28T16:52:56.428Z,4.67
2018-09-28T16:55:24.691Z,2.80
2018-09-28T16:57:53.101Z,6.80
2018-09-28T17:00:21.372Z,1.00
2018-09-28T17:02:49.652Z,3.27
2018-09-28T17:05:17.929Z,2.00
2018-09-28T17:07:46.226Z,1.97
2018-09-28T17:10:14.504Z,4.50
2018-09-28T17:12:42.781Z,3.13
2018-09-28T17:15:11.071Z,1.93
2018-09-28T17:17:39.462Z,3.50
2018-09-28T17:20:07.783Z,2.30
2018-09-28T17:22:36.091Z,6.03
2018-09-28T17:25:04.416Z,2.60
2018-09-28T17:27:32.694Z,3.43
2018-09-28T17:30:00.976Z,5.10
2018-09-28T17:32:29.306Z,6.90
2018-09-28T17:34:57.639Z,4.50
2018-09-28T17:37:25.903Z,4.30
2018-09-28T17:39:54.247Z,4.27
2018-09-28T17:42:22.527Z,13.33
2018-09-28T17:44:50.840Z,3.90
2018-09-28T17:47:19.164Z,15.27
2018-09-28T17:49:47.461Z,6.23
2018-09-28T17:52:15.736Z,12.30
2018-09-28T17:54:44.424Z,8.23
2018-09-28T17:57:12.733Z,7.67
2018-09-28T17:59:41.092Z,7.80
2018-09-28T18:02:09.408Z,4.00
2018-09-28T18:04:37.719Z,5.27
2018-09-28T18:07:06.074Z,11.53
2018-09-28T18:09:34.432Z,2.63
2018-09-28T18:12:02.704Z,2.23
2018-09-28T18:14:31.103Z,5.70
2018-09-28T18:16:59.421Z,3.53
2018-09-28T18:19:27.787Z,6.27
2018-09-28T18:21:56.107Z,3.57
2018-09-28T18:24:24.396Z,15.53
2018-09-28T18:26:52.675Z,5.03
2018-09-28T18:29:20.970Z,9.80
2018-09-28T18:31:49.252Z,5.93
2018-09-28T18:34:17.584Z,13.63
2018-09-28T18:36:46.192Z,6.67
2018-09-28T18:39:14.618Z,5.70
2018-09-28T18:41:42.979Z,7.17
2018-09-28T18:44:11.305Z,8.10
2018-09-28T18:46:40.352Z,13.40
2018-09-28T18:49:08.739Z,15.07
2018-09-28T18:51:37.403Z,13.13
2018-09-28T18:54:06.037Z,13.53
2018-09-28T18:56:34.413Z,21.37
2018-09-28T18:59:02.879Z,11.60
2018-09-28T19:01:31.292Z,10.40
2018-09-28T19:03:59.616Z,10.47
2018-09-28T19:06:28.236Z,12.70
2018-09-28T19:08:56.881Z,26.53
2018-09-28T19:11:25.841Z,19.30
2018-09-28T19:13:55.632Z,15.20
2018-09-28T19:16:24.110Z,15.63
2018-09-28T19:19:11.028Z,19.17
2018-09-28T19:21:41.453Z,16.70
2018-09-28T19:24:13.345Z,25.77
2018-09-28T19:26:41.873Z,25.87
2018-09-28T19:29:11.112Z,27.27
2018-09-28T19:31:44.791Z,27.13
2018-09-28T19:34:13.809Z,19.67
2018-09-28T19:36:42.288Z,14.70
2018-09-28T19:39:12.638Z,12.57
2018-09-28T19:41:41.905Z,21.70
2018-09-28T19:44:12.713Z,14.93
2018-09-28T19:46:41.540Z,10.47
2018-09-28T19:49:11.164Z,6.73
2018-09-28T19:51:40.238Z,8.10
2018-09-28T19:54:11.642Z,18.67
2018-09-28T19:56:41.508Z,12.13
2018-09-28T19:59:10.215Z,11.87
2018-09-28T20:01:39.466Z,17.10
2018-09-28T20:04:08.203Z,17.03
2018-09-28T20:06:36.771Z,20.07
2018-09-28T20:09:07.704Z,19.90
2018-09-28T20:11:43.747Z,18.53
2018-09-28T20:14:12.554Z,21.27
2018-09-28T20:16:40.928Z,19.87
2018-09-28T20:19:09.344Z,27.40
2018-09-28T20:21:37.817Z,19.27
2018-09-28T20:24:06.700Z,17.23
2018-09-28T20:26:35.171Z,10.23
2018-09-28T20:29:04.664Z,6.90
2018-09-28T20:31:33.163Z,11.03
2018-09-28T20:34:01.511Z,12.00
2018-09-28T20:36:30.131Z,10.20
2018-09-28T20:38:58.619Z,18.17
2018-09-28T20:41:27.061Z,22.30
2018-09-28T20:43:55.588Z,20.37
2018-09-28T20:46:23.932Z,18.83
2018-09-28T20:48:52.348Z,28.37
2018-09-28T20:51:20.721Z,17.50
2018-09-28T20:53:49.380Z,9.20
2018-09-28T20:56:17.785Z,14.77
2018-09-28T20:58:46.359Z,6.93
2018-09-28T21:01:14.799Z,11.63
2018-09-28T21:03:43.205Z,18.47
2018-09-28T21:06:11.600Z,11.87
2018-09-28T21:08:39.996Z,9.30
2018-09-28T21:11:08.425Z,8.43
2018-09-28T21:13:36.922Z,7.63
2018-09-28T21:16:06.345Z,5.47
2018-09-28T21:18:38.916Z,7.00
2018-09-28T21:21:07.377Z,11.33
2018-09-28T21:23:36.033Z,8.93
2018-09-28T21:26:04.523Z,21.60
2018-09-28T21:28:33.050Z,13.30
2018-09-28T21:31:01.646Z,22.43
2018-09-28T21:33:30.133Z,9.00
2018-09-28T21:35:58.617Z,7.37
2018-09-28T21:38:27.188Z,6.57
2018-09-28T21:40:55.571Z,7.80
2018-09-28T21:43:23.962Z,7.83
2018-09-28T21:45:52.440Z,4.90
2018-09-28T21:48:20.924Z,5.10
2018-09-28T21:50:49.420Z,4.77
2018-09-28T21:53:17.880Z,9.50
2018-09-28T21:55:46.368Z,3.93
2018-09-28T21:58:14.867Z,16.00
2018-09-28T22:00:43.419Z,10.00
2018-09-28T22:03:11.909Z,7.80
2018-09-28T22:05:40.414Z,9.90
2018-09-28T22:08:08.988Z,15.50
2018-09-28T22:10:38.508Z,21.90
2018-09-28T22:13:07.100Z,9.60
2018-09-28T22:15:35.540Z,14.57
2018-09-28T22:18:04.012Z,11.90
2018-09-28T22:20:32.447Z,10.17
2018-09-28T22:23:00.909Z,10.67
2018-09-28T22:25:29.303Z,10.23
2018-09-28T22:27:57.668Z,7.47
2018-09-28T22:30:26.231Z,6.93
2018-09-28T22:32:54.700Z,6.17
2018-09-28T22:35:23.120Z,7.57
2018-09-28T22:37:51.526Z,7.90
2018-09-28T22:40:20.009Z,18.47
2018-09-28T22:42:48.667Z,6.80
2018-09-28T22:45:17.043Z,8.40
2018-09-28T22:47:45.384Z,7.07
2018-09-28T22:50:13.702Z,8.53
2018-09-28T22:52:41.976Z,8.23
2018-09-28T22:55:10.351Z,3.60
2018-09-28T22:57:38.741Z,7.00
2018-09-28T23:00:07.192Z,7.67
2018-09-28T23:02:35.613Z,11.57
2018-09-28T23:05:03.976Z,9.80
2018-09-28T23:07:32.257Z,6.27
2018-09-28T23:10:00.665Z,9.27
2018-09-28T23:12:29.019Z,11.03
2018-09-28T23:14:57.422Z,9.37
2018-09-28T23:17:25.915Z,8.50
2018-09-28T23:19:54.265Z,6.70
2018-09-28T23:22:22.617Z,5.20
2018-09-28T23:24:50.927Z,4.43
2018-09-28T23:27:19.396Z,8.50
2018-09-28T23:29:47.816Z,6.23
2018-09-28T23:32:16.251Z,7.10
2018-09-28T23:34:44.855Z,4.43
2018-09-28T23:37:13.232Z,4.47
2018-09-28T23:39:41.632Z,4.20
2018-09-28T23:42:10.077Z,3.47
2018-09-28T23:44:38.548Z,3.50
2018-09-28T23:47:06.987Z,3.97
2018-09-28T23:49:35.411Z,7.97
2018-09-28T23:52:03.815Z,3.63
2018-09-28T23:54:32.195Z,9.60
2018-09-28T23:57:00.801Z,3.60
2018-09-28T23:59:29.175Z,4.50
